sensor_id;sensor_type;location;lat;lon;timestamp;temperature;humidity
56103;DHT22;41970;48.774;9.280;2022-07-18T00:00:16;19.40;55.50
56103;DHT22;41970;48.774;9.280;2022-07-18T00:02:42;19.20;55.70
56103;DHT22;41970;48.774;9.280;2022-07-18T00:05:08;19.30;55.80
56103;DHT22;41970;48.774;9.280;2022-07-18T00:07:34;19.30;56.00
56103;DHT22;41970;48.774;9.280;2022-07-18T00:10:00;19.30;56.40
56103;DHT22;41970;48.774;9.280;2022-07-18T00:12:26;19.10;55.50
56103;DHT22;41970;48.774;9.280;2022-07-18T00:14:52;19.00;56.00
56103;DHT22;41970;48.774;9.280;2022-07-18T00:17:18;19.10;56.00
56103;DHT22;41970;48.774;9.280;2022-07-18T00:19:44;19.10;55.90
56103;DHT22;41970;48.774;9.280;2022-07-18T00:22:10;19.00;55.80
56103;DHT22;41970;48.774;9.280;2022-07-18T00:24:35;18.90;55.90
56103;DHT22;41970;48.774;9.280;2022-07-18T00:27:04;18.90;56.30
56103;DHT22;41970;48.774;9.280;2022-07-18T00:29:33;18.70;56.80
56103;DHT22;41970;48.774;9.280;2022-07-18T00:32:03;18.90;56.60
56103;DHT22;41970;48.774;9.280;2022-07-18T00:34:29;19.00;55.80
56103;DHT22;41970;48.774;9.280;2022-07-18T00:36:55;18.80;55.70
56103;DHT22;41970;48.774;9.280;2022-07-18T00:39:21;18.60;56.30
56103;DHT22;41970;48.774;9.280;2022-07-18T00:41:47;18.50;57.00
56103;DHT22;41970;48.774;9.280;2022-07-18T00:44:18;18.40;57.80
56103;DHT22;41970;48.774;9.280;2022-07-18T00:46:44;18.40;58.00
56103;DHT22;41970;48.774;9.280;2022-07-18T00:49:10;18.50;57.90
56103;DHT22;41970;48.774;9.280;2022-07-18T00:51:36;18.60;57.50
56103;DHT22;41970;48.774;9.280;2022-07-18T00:54:04;18.60;57.40
56103;DHT22;41970;48.774;9.280;2022-07-18T00:56:31;18.40;57.40
56103;DHT22;41970;48.774;9.280;2022-07-18T00:58:56;18.50;57.40
56103;DHT22;41970;48.774;9.280;2022-07-18T01:01:22;18.50;57.10
56103;DHT22;41970;48.774;9.280;2022-07-18T01:04:07;18.50;57.20
56103;DHT22;41970;48.774;9.280;2022-07-18T01:06:33;18.50;57.30
56103;DHT22;41970;48.774;9.280;2022-07-18T01:08:58;18.40;57.30
56103;DHT22;41970;48.774;9.280;2022-07-18T01:11:25;18.30;58.10
56103;DHT22;41970;48.774;9.280;2022-07-18T01:13:51;18.20;58.40
56103;DHT22;41970;48.774;9.280;2022-07-18T01:16:17;18.30;58.50
56103;DHT22;41970;48.774;9.280;2022-07-18T01:18:47;18.30;58.50
56103;DHT22;41970;48.774;9.280;2022-07-18T01:21:14;18.30;58.80
56103;DHT22;41970;48.774;9.280;2022-07-18T01:23:40;18.40;58.60
56103;DHT22;41970;48.774;9.280;2022-07-18T01:26:06;18.40;58.30
56103;DHT22;41970;48.774;9.280;2022-07-18T01:28:32;18.40;57.70
56103;DHT22;41970;48.774;9.280;2022-07-18T01:30:58;18.30;58.10
56103;DHT22;41970;48.774;9.280;2022-07-18T01:33:24;18.20;58.40
56103;DHT22;41970;48.774;9.280;2022-07-18T01:35:50;18.10;58.30
56103;DHT22;41970;48.774;9.280;2022-07-18T01:38:15;17.90;58.90
56103;DHT22;41970;48.774;9.280;2022-07-18T01:40:43;17.90;59.10
56103;DHT22;41970;48.774;9.280;2022-07-18T01:43:09;18.00;59.10
56103;DHT22;41970;48.774;9.280;2022-07-18T01:45:35;17.90;58.90
56103;DHT22;41970;48.774;9.280;2022-07-18T01:48:01;17.80;59.40
56103;DHT22;41970;48.774;9.280;2022-07-18T01:50:27;17.70;59.60
56103;DHT22;41970;48.774;9.280;2022-07-18T01:52:53;17.60;61.20
56103;DHT22;41970;48.774;9.280;2022-07-18T01:55:19;17.40;61.20
56103;DHT22;41970;48.774;9.280;2022-07-18T01:57:45;17.20;61.20
56103;DHT22;41970;48.774;9.280;2022-07-18T02:00:11;17.00;61.30
56103;DHT22;41970;48.774;9.280;2022-07-18T02:02:38;17.10;61.70
56103;DHT22;41970;48.774;9.280;2022-07-18T02:05:05;17.30;61.40
56103;DHT22;41970;48.774;9.280;2022-07-18T02:07:40;17.40;60.00
56103;DHT22;41970;48.774;9.280;2022-07-18T02:10:11;17.40;60.20
56103;DHT22;41970;48.774;9.280;2022-07-18T02:12:38;17.30;60.40
56103;DHT22;41970;48.774;9.280;2022-07-18T02:15:06;17.30;60.90
56103;DHT22;41970;48.774;9.280;2022-07-18T02:17:32;17.30;61.90
56103;DHT22;41970;48.774;9.280;2022-07-18T02:19:58;17.30;61.70
56103;DHT22;41970;48.774;9.280;2022-07-18T02:22:24;17.40;61.70
56103;DHT22;41970;48.774;9.280;2022-07-18T02:24:51;17.20;62.30
56103;DHT22;41970;48.774;9.280;2022-07-18T02:27:17;17.10;63.50
56103;DHT22;41970;48.774;9.280;2022-07-18T02:29:43;17.10;63.30
56103;DHT22;41970;48.774;9.280;2022-07-18T02:32:09;17.30;62.50
56103;DHT22;41970;48.774;9.280;2022-07-18T02:34:35;17.30;62.60
56103;DHT22;41970;48.774;9.280;2022-07-18T02:37:01;17.20;62.90
56103;DHT22;41970;48.774;9.280;2022-07-18T02:39:27;17.20;62.50
56103;DHT22;41970;48.774;9.280;2022-07-18T02:41:54;17.20;62.60
56103;DHT22;41970;48.774;9.280;2022-07-18T02:44:20;17.30;62.40
56103;DHT22;41970;48.774;9.280;2022-07-18T02:46:46;17.30;62.30
56103;DHT22;41970;48.774;9.280;2022-07-18T02:49:12;17.30;62.30
56103;DHT22;41970;48.774;9.280;2022-07-18T02:51:57;17.40;62.30
56103;DHT22;41970;48.774;9.280;2022-07-18T02:54:23;17.40;62.10
56103;DHT22;41970;48.774;9.280;2022-07-18T02:56:50;17.40;62.20
56103;DHT22;41970;48.774;9.280;2022-07-18T02:59:16;17.30;62.50
56103;DHT22;41970;48.774;9.280;2022-07-18T03:01:42;17.30;62.80
56103;DHT22;41970;48.774;9.280;2022-07-18T03:04:08;17.20;63.20
56103;DHT22;41970;48.774;9.280;2022-07-18T03:06:34;17.20;63.20
56103;DHT22;41970;48.774;9.280;2022-07-18T03:08:59;17.20;63.30
56103;DHT22;41970;48.774;9.280;2022-07-18T03:11:25;17.00;64.50
56103;DHT22;41970;48.774;9.280;2022-07-18T03:13:51;17.00;65.10
56103;DHT22;41970;48.774;9.280;2022-07-18T03:16:17;17.10;65.50
56103;DHT22;41970;48.774;9.280;2022-07-18T03:18:43;17.00;65.40
56103;DHT22;41970;48.774;9.280;2022-07-18T03:21:08;17.10;65.60
56103;DHT22;41970;48.774;9.280;2022-07-18T03:23:34;17.10;65.60
56103;DHT22;41970;48.774;9.280;2022-07-18T03:26:00;17.10;65.60
56103;DHT22;41970;48.774;9.280;2022-07-18T03:28:26;17.00;65.80
56103;DHT22;41970;48.774;9.280;2022-07-18T03:30:52;16.90;66.70
56103;DHT22;41970;48.774;9.280;2022-07-18T03:33:17;16.80;67.50
56103;DHT22;41970;48.774;9.280;2022-07-18T03:35:43;16.80;67.80
56103;DHT22;41970;48.774;9.280;2022-07-18T03:38:09;16.90;67.30
56103;DHT22;41970;48.774;9.280;2022-07-18T03:40:35;16.90;67.50
56103;DHT22;41970;48.774;9.280;2022-07-18T03:43:01;16.90;68.40
56103;DHT22;41970;48.774;9.280;2022-07-18T03:45:27;16.80;69.10
56103;DHT22;41970;48.774;9.280;2022-07-18T03:47:52;16.70;69.80
56103;DHT22;41970;48.774;9.280;2022-07-18T03:50:18;16.70;69.60
56103;DHT22;41970;48.774;9.280;2022-07-18T03:52:44;16.70;69.00
56103;DHT22;41970;48.774;9.280;2022-07-18T03:55:11;16.80;68.50
56103;DHT22;41970;48.774;9.280;2022-07-18T03:57:37;16.80;68.60
56103;DHT22;41970;48.774;9.280;2022-07-18T04:00:05;16.80;68.80
56103;DHT22;41970;48.774;9.280;2022-07-18T04:02:33;16.80;68.80
56103;DHT22;41970;48.774;9.280;2022-07-18T04:05:02;16.80;68.40
56103;DHT22;41970;48.774;9.280;2022-07-18T04:07:29;16.80;68.40
56103;DHT22;41970;48.774;9.280;2022-07-18T04:09:54;16.70;68.80
56103;DHT22;41970;48.774;9.280;2022-07-18T04:12:20;16.70;69.50
56103;DHT22;41970;48.774;9.280;2022-07-18T04:14:46;16.80;69.30
56103;DHT22;41970;48.774;9.280;2022-07-18T04:17:12;16.80;69.60
56103;DHT22;41970;48.774;9.280;2022-07-18T04:19:38;16.70;70.00
56103;DHT22;41970;48.774;9.280;2022-07-18T04:22:03;16.70;70.70
56103;DHT22;41970;48.774;9.280;2022-07-18T04:24:29;16.70;70.90
56103;DHT22;41970;48.774;9.280;2022-07-18T04:26:55;16.60;71.60
56103;DHT22;41970;48.774;9.280;2022-07-18T04:29:21;16.70;71.50
56103;DHT22;41970;48.774;9.280;2022-07-18T04:31:47;16.80;71.30
56103;DHT22;41970;48.774;9.280;2022-07-18T04:34:12;16.70;71.50
56103;DHT22;41970;48.774;9.280;2022-07-18T04:36:38;16.70;71.80
56103;DHT22;41970;48.774;9.280;2022-07-18T04:39:04;16.70;71.60
56103;DHT22;41970;48.774;9.280;2022-07-18T04:41:30;16.70;71.40
56103;DHT22;41970;48.774;9.280;2022-07-18T04:43:56;16.70;71.70
56103;DHT22;41970;48.774;9.280;2022-07-18T04:46:22;16.70;71.80
56103;DHT22;41970;48.774;9.280;2022-07-18T04:48:48;16.80;71.90
56103;DHT22;41970;48.774;9.280;2022-07-18T04:51:14;16.80;71.80
56103;DHT22;41970;48.774;9.280;2022-07-18T04:53:40;16.80;72.20
56103;DHT22;41970;48.774;9.280;2022-07-18T04:56:06;16.70;73.00
56103;DHT22;41970;48.774;9.280;2022-07-18T04:58:32;16.70;73.60
56103;DHT22;41970;48.774;9.280;2022-07-18T05:00:58;16.70;73.40
56103;DHT22;41970;48.774;9.280;2022-07-18T05:03:23;16.80;73.20
56103;DHT22;41970;48.774;9.280;2022-07-18T05:05:50;16.90;73.50
56103;DHT22;41970;48.774;9.280;2022-07-18T05:08:16;17.00;73.00
56103;DHT22;41970;48.774;9.280;2022-07-18T05:10:41;17.00;73.50
56103;DHT22;41970;48.774;9.280;2022-07-18T05:13:07;17.10;73.40
56103;DHT22;41970;48.774;9.280;2022-07-18T05:15:33;17.00;74.00
56103;DHT22;41970;48.774;9.280;2022-07-18T05:17:59;17.10;74.40
56103;DHT22;41970;48.774;9.280;2022-07-18T05:20:26;17.20;74.60
56103;DHT22;41970;48.774;9.280;2022-07-18T05:22:53;17.30;75.10
56103;DHT22;41970;48.774;9.280;2022-07-18T05:25:20;17.40;74.90
56103;DHT22;41970;48.774;9.280;2022-07-18T05:27:48;17.40;74.90
56103;DHT22;41970;48.774;9.280;2022-07-18T05:30:15;17.50;75.20
56103;DHT22;41970;48.774;9.280;2022-07-18T05:32:41;17.60;75.40
56103;DHT22;41970;48.774;9.280;2022-07-18T05:35:08;17.70;75.40
56103;DHT22;41970;48.774;9.280;2022-07-18T05:37:34;17.90;75.80
56103;DHT22;41970;48.774;9.280;2022-07-18T05:40:08;17.90;75.50
56103;DHT22;41970;48.774;9.280;2022-07-18T05:42:35;18.00;74.80
56103;DHT22;41970;48.774;9.280;2022-07-18T05:45:01;18.10;74.80
56103;DHT22;41970;48.774;9.280;2022-07-18T05:47:27;18.20;75.10
56103;DHT22;41970;48.774;9.280;2022-07-18T05:49:53;18.30;75.70
56103;DHT22;41970;48.774;9.280;2022-07-18T05:52:19;18.30;74.30
56103;DHT22;41970;48.774;9.280;2022-07-18T05:54:45;18.30;74.60
56103;DHT22;41970;48.774;9.280;2022-07-18T05:57:11;18.30;74.20
56103;DHT22;41970;48.774;9.280;2022-07-18T05:59:36;18.30;74.70
56103;DHT22;41970;48.774;9.280;2022-07-18T06:02:02;18.30;74.90
56103;DHT22;41970;48.774;9.280;2022-07-18T06:04:28;18.30;75.00
56103;DHT22;41970;48.774;9.280;2022-07-18T06:06:54;18.30;75.50
56103;DHT22;41970;48.774;9.280;2022-07-18T06:09:20;18.30;75.30
56103;DHT22;41970;48.774;9.280;2022-07-18T06:11:46;18.30;75.10
56103;DHT22;41970;48.774;9.280;2022-07-18T06:14:11;18.40;75.10
56103;DHT22;41970;48.774;9.280;2022-07-18T06:16:37;18.40;75.00
56103;DHT22;41970;48.774;9.280;2022-07-18T06:19:03;18.50;74.60
56103;DHT22;41970;48.774;9.280;2022-07-18T06:21:29;18.60;74.90
56103;DHT22;41970;48.774;9.280;2022-07-18T06:23:55;18.70;74.60
56103;DHT22;41970;48.774;9.280;2022-07-18T06:26:21;18.80;74.50
56103;DHT22;41970;48.774;9.280;2022-07-18T06:28:47;18.90;73.60
56103;DHT22;41970;48.774;9.280;2022-07-18T06:31:14;18.90;73.40
56103;DHT22;41970;48.774;9.280;2022-07-18T06:33:43;19.10;73.70
56103;DHT22;41970;48.774;9.280;2022-07-18T06:36:09;19.20;72.20
56103;DHT22;41970;48.774;9.280;2022-07-18T06:38:37;19.30;72.10
56103;DHT22;41970;48.774;9.280;2022-07-18T06:41:05;19.50;71.90
56103;DHT22;41970;48.774;9.280;2022-07-18T06:43:30;19.60;71.40
56103;DHT22;41970;48.774;9.280;2022-07-18T06:45:57;19.90;71.10
56103;DHT22;41970;48.774;9.280;2022-07-18T06:48:23;20.20;68.60
56103;DHT22;41970;48.774;9.280;2022-07-18T06:50:49;20.60;68.40
56103;DHT22;41970;48.774;9.280;2022-07-18T06:53:15;20.90;67.00
56103;DHT22;41970;48.774;9.280;2022-07-18T06:55:41;21.00;65.00
56103;DHT22;41970;48.774;9.280;2022-07-18T06:58:07;21.10;64.40
56103;DHT22;41970;48.774;9.280;2022-07-18T07:00:35;20.90;63.80
56103;DHT22;41970;48.774;9.280;2022-07-18T07:03:01;21.10;64.60
56103;DHT22;41970;48.774;9.280;2022-07-18T07:05:26;21.30;64.20
56103;DHT22;41970;48.774;9.280;2022-07-18T07:07:52;21.50;63.70
56103;DHT22;41970;48.774;9.280;2022-07-18T07:10:19;21.70;62.20
56103;DHT22;41970;48.774;9.280;2022-07-18T07:12:47;21.80;61.80
56103;DHT22;41970;48.774;9.280;2022-07-18T07:15:15;21.90;61.70
56103;DHT22;41970;48.774;9.280;2022-07-18T07:17:41;22.00;60.30
56103;DHT22;41970;48.774;9.280;2022-07-18T07:20:07;22.20;60.00
56103;DHT22;41970;48.774;9.280;2022-07-18T07:22:47;22.40;60.00
56103;DHT22;41970;48.774;9.280;2022-07-18T07:25:15;22.60;58.70
56103;DHT22;41970;48.774;9.280;2022-07-18T07:27:42;22.80;58.70
56103;DHT22;41970;48.774;9.280;2022-07-18T07:30:08;23.00;58.40
56103;DHT22;41970;48.774;9.280;2022-07-18T07:32:36;23.20;57.90
56103;DHT22;41970;48.774;9.280;2022-07-18T07:35:03;23.00;58.90
56103;DHT22;41970;48.774;9.280;2022-07-18T07:37:33;23.40;58.80
56103;DHT22;41970;48.774;9.280;2022-07-18T07:39:59;23.70;57.80
56103;DHT22;41970;48.774;9.280;2022-07-18T07:42:25;24.10;57.40
56103;DHT22;41970;48.774;9.280;2022-07-18T07:44:51;24.40;57.00
56103;DHT22;41970;48.774;9.280;2022-07-18T07:47:17;24.70;57.20
56103;DHT22;41970;48.774;9.280;2022-07-18T07:49:43;24.90;55.10
56103;DHT22;41970;48.774;9.280;2022-07-18T07:52:09;25.40;53.50
56103;DHT22;41970;48.774;9.280;2022-07-18T07:54:37;25.90;53.10
56103;DHT22;41970;48.774;9.280;2022-07-18T07:57:03;26.50;52.70
56103;DHT22;41970;48.774;9.280;2022-07-18T07:59:29;26.90;51.80
56103;DHT22;41970;48.774;9.280;2022-07-18T08:01:58;26.70;49.60
56103;DHT22;41970;48.774;9.280;2022-07-18T08:04:24;26.60;49.30
56103;DHT22;41970;48.774;9.280;2022-07-18T08:06:50;26.40;49.70
56103;DHT22;41970;48.774;9.280;2022-07-18T08:09:16;26.90;50.90
56103;DHT22;41970;48.774;9.280;2022-07-18T08:11:42;27.40;49.50
56103;DHT22;41970;48.774;9.280;2022-07-18T08:14:09;27.60;51.20
56103;DHT22;41970;48.774;9.280;2022-07-18T08:16:35;27.90;50.60
56103;DHT22;41970;48.774;9.280;2022-07-18T08:19:01;28.20;49.50
56103;DHT22;41970;48.774;9.280;2022-07-18T08:21:27;28.50;50.00
56103;DHT22;41970;48.774;9.280;2022-07-18T08:23:52;28.70;47.90
56103;DHT22;41970;48.774;9.280;2022-07-18T08:26:18;28.70;48.40
56103;DHT22;41970;48.774;9.280;2022-07-18T08:28:44;29.10;48.70
56103;DHT22;41970;48.774;9.280;2022-07-18T08:31:10;29.30;46.70
56103;DHT22;41970;48.774;9.280;2022-07-18T08:33:36;29.50;45.60
56103;DHT22;41970;48.774;9.280;2022-07-18T08:36:03;29.80;45.80
56103;DHT22;41970;48.774;9.280;2022-07-18T08:38:29;30.10;46.20
56103;DHT22;41970;48.774;9.280;2022-07-18T08:40:54;30.20;45.40
56103;DHT22;41970;48.774;9.280;2022-07-18T08:43:24;30.20;45.90
56103;DHT22;41970;48.774;9.280;2022-07-18T08:45:55;30.40;44.50
56103;DHT22;41970;48.774;9.280;2022-07-18T08:48:22;30.50;43.50
56103;DHT22;41970;48.774;9.280;2022-07-18T08:50:49;30.80;44.90
56103;DHT22;41970;48.774;9.280;2022-07-18T08:53:17;30.90;43.60
56103;DHT22;41970;48.774;9.280;2022-07-18T08:55:44;31.00;42.70
56103;DHT22;41970;48.774;9.280;2022-07-18T08:58:10;31.30;42.80
56103;DHT22;41970;48.774;9.280;2022-07-18T09:00:38;31.40;41.60
56103;DHT22;41970;48.774;9.280;2022-07-18T09:03:04;31.50;41.90
56103;DHT22;41970;48.774;9.280;2022-07-18T09:05:31;31.70;41.70
56103;DHT22;41970;48.774;9.280;2022-07-18T09:08:15;31.80;43.80
56103;DHT22;41970;48.774;9.280;2022-07-18T09:10:55;31.90;41.20
56103;DHT22;41970;48.774;9.280;2022-07-18T09:13:23;32.00;40.00
56103;DHT22;41970;48.774;9.280;2022-07-18T09:16:11;32.00;39.80
56103;DHT22;41970;48.774;9.280;2022-07-18T09:18:38;32.10;40.20
56103;DHT22;41970;48.774;9.280;2022-07-18T09:21:10;32.10;40.30
56103;DHT22;41970;48.774;9.280;2022-07-18T09:23:41;32.10;39.60
56103;DHT22;41970;48.774;9.280;2022-07-18T09:26:09;32.30;37.70
56103;DHT22;41970;48.774;9.280;2022-07-18T09:29:05;32.30;38.30
56103;DHT22;41970;48.774;9.280;2022-07-18T09:31:30;32.40;38.70
56103;DHT22;41970;48.774;9.280;2022-07-18T09:34:01;32.50;37.90
56103;DHT22;41970;48.774;9.280;2022-07-18T09:36:28;32.40;37.90
56103;DHT22;41970;48.774;9.280;2022-07-18T09:38:55;32.20;38.20
56103;DHT22;41970;48.774;9.280;2022-07-18T09:41:29;32.30;37.40
56103;DHT22;41970;48.774;9.280;2022-07-18T09:43:58;32.30;37.10
56103;DHT22;41970;48.774;9.280;2022-07-18T09:46:24;32.30;38.50
56103;DHT22;41970;48.774;9.280;2022-07-18T09:49:09;32.40;37.30
56103;DHT22;41970;48.774;9.280;2022-07-18T09:51:35;32.50;36.10
56103;DHT22;41970;48.774;9.280;2022-07-18T09:54:01;32.50;36.80
56103;DHT22;41970;48.774;9.280;2022-07-18T09:56:30;32.60;36.60
56103;DHT22;41970;48.774;9.280;2022-07-18T09:58:59;32.30;35.50
56103;DHT22;41970;48.774;9.280;2022-07-18T10:01:25;31.90;36.80
56103;DHT22;41970;48.774;9.280;2022-07-18T10:03:52;31.60;36.30
56103;DHT22;41970;48.774;9.280;2022-07-18T10:06:19;31.60;36.60
56103;DHT22;41970;48.774;9.280;2022-07-18T10:08:45;31.80;37.40
56103;DHT22;41970;48.774;9.280;2022-07-18T10:11:11;31.90;37.90
56103;DHT22;41970;48.774;9.280;2022-07-18T10:13:38;32.10;36.50
56103;DHT22;41970;48.774;9.280;2022-07-18T10:16:05;32.20;36.70
56103;DHT22;41970;48.774;9.280;2022-07-18T10:18:33;32.30;36.00
56103;DHT22;41970;48.774;9.280;2022-07-18T10:23:45;32.20;37.00
56103;DHT22;41970;48.774;9.280;2022-07-18T10:31:39;32.10;35.10
56103;DHT22;41970;48.774;9.280;2022-07-18T10:39:21;31.70;34.40
56103;DHT22;41970;48.774;9.280;2022-07-18T10:57:32;31.40;35.30
56103;DHT22;41970;48.774;9.280;2022-07-18T11:21:22;31.70;34.70
56103;DHT22;41970;48.774;9.280;2022-07-18T11:23:51;31.50;35.30
56103;DHT22;41970;48.774;9.280;2022-07-18T11:26:19;31.40;35.80
56103;DHT22;41970;48.774;9.280;2022-07-18T11:28:46;31.50;35.90
56103;DHT22;41970;48.774;9.280;2022-07-18T11:31:14;31.50;35.50
56103;DHT22;41970;48.774;9.280;2022-07-18T11:33:46;31.70;34.50
56103;DHT22;41970;48.774;9.280;2022-07-18T11:36:15;31.70;34.60
56103;DHT22;41970;48.774;9.280;2022-07-18T11:38:50;31.40;34.10
56103;DHT22;41970;48.774;9.280;2022-07-18T11:41:20;31.30;34.00
56103;DHT22;41970;48.774;9.280;2022-07-18T11:43:49;31.20;34.10
56103;DHT22;41970;48.774;9.280;2022-07-18T11:46:18;31.40;34.30
56103;DHT22;41970;48.774;9.280;2022-07-18T11:48:46;31.50;33.10
56103;DHT22;41970;48.774;9.280;2022-07-18T11:51:16;31.30;33.20
56103;DHT22;41970;48.774;9.280;2022-07-18T11:53:47;31.30;33.30
56103;DHT22;41970;48.774;9.280;2022-07-18T11:56:14;31.40;33.60
56103;DHT22;41970;48.774;9.280;2022-07-18T11:58:42;31.20;32.40
56103;DHT22;41970;48.774;9.280;2022-07-18T12:01:08;31.10;32.80
56103;DHT22;41970;48.774;9.280;2022-07-18T12:03:36;30.90;31.90
56103;DHT22;41970;48.774;9.280;2022-07-18T12:06:12;31.00;32.20
56103;DHT22;41970;48.774;9.280;2022-07-18T12:08:46;31.20;32.60
56103;DHT22;41970;48.774;9.280;2022-07-18T12:11:18;31.50;32.00
56103;DHT22;41970;48.774;9.280;2022-07-18T12:19:07;31.50;33.90
56103;DHT22;41970;48.774;9.280;2022-07-18T12:27:10;31.30;32.90
56103;DHT22;41970;48.774;9.280;2022-07-18T12:32:23;31.70;32.30
56103;DHT22;41970;48.774;9.280;2022-07-18T12:35:00;32.00;32.00
56103;DHT22;41970;48.774;9.280;2022-07-18T12:37:28;32.20;32.20
56103;DHT22;41970;48.774;9.280;2022-07-18T12:40:04;32.40;32.00
56103;DHT22;41970;48.774;9.280;2022-07-18T12:42:36;32.50;32.40
56103;DHT22;41970;48.774;9.280;2022-07-18T12:45:03;32.50;31.70
56103;DHT22;41970;48.774;9.280;2022-07-18T12:47:30;32.10;32.80
56103;DHT22;41970;48.774;9.280;2022-07-18T12:49:56;32.10;33.10
56103;DHT22;41970;48.774;9.280;2022-07-18T12:52:22;32.10;32.10
56103;DHT22;41970;48.774;9.280;2022-07-18T12:54:48;31.80;33.30
56103;DHT22;41970;48.774;9.280;2022-07-18T12:57:15;31.90;32.50
56103;DHT22;41970;48.774;9.280;2022-07-18T12:59:41;32.00;32.40
56103;DHT22;41970;48.774;9.280;2022-07-18T13:02:07;32.20;32.20
56103;DHT22;41970;48.774;9.280;2022-07-18T13:04:33;32.50;32.40
56103;DHT22;41970;48.774;9.280;2022-07-18T13:06:58;32.60;31.90
56103;DHT22;41970;48.774;9.280;2022-07-18T13:09:24;32.20;32.40
56103;DHT22;41970;48.774;9.280;2022-07-18T13:11:50;32.00;32.40
56103;DHT22;41970;48.774;9.280;2022-07-18T13:14:17;32.10;32.60
56103;DHT22;41970;48.774;9.280;2022-07-18T13:16:44;32.40;33.00
56103;DHT22;41970;48.774;9.280;2022-07-18T13:19:16;32.20;32.30
56103;DHT22;41970;48.774;9.280;2022-07-18T13:21:43;32.10;31.80
56103;DHT22;41970;48.774;9.280;2022-07-18T13:24:10;32.30;32.40
56103;DHT22;41970;48.774;9.280;2022-07-18T13:26:37;32.60;32.40
56103;DHT22;41970;48.774;9.280;2022-07-18T13:29:04;32.90;31.50
56103;DHT22;41970;48.774;9.280;2022-07-18T13:31:30;33.20;31.30
56103;DHT22;41970;48.774;9.280;2022-07-18T13:33:56;33.40;31.90
56103;DHT22;41970;48.774;9.280;2022-07-18T13:36:22;33.50;31.20
56103;DHT22;41970;48.774;9.280;2022-07-18T13:38:48;33.70;30.90
56103;DHT22;41970;48.774;9.280;2022-07-18T13:41:14;33.80;30.90
56103;DHT22;41970;48.774;9.280;2022-07-18T13:43:40;33.30;31.30
56103;DHT22;41970;48.774;9.280;2022-07-18T13:46:08;32.90;30.80
56103;DHT22;41970;48.774;9.280;2022-07-18T13:48:34;33.00;31.40
56103;DHT22;41970;48.774;9.280;2022-07-18T13:51:00;32.80;31.50
56103;DHT22;41970;48.774;9.280;2022-07-18T13:53:26;32.60;31.90
56103;DHT22;41970;48.774;9.280;2022-07-18T13:55:52;32.70;31.30
56103;DHT22;41970;48.774;9.280;2022-07-18T13:58:18;32.40;31.80
56103;DHT22;41970;48.774;9.280;2022-07-18T14:00:45;32.40;32.00
56103;DHT22;41970;48.774;9.280;2022-07-18T14:03:11;32.60;31.70
56103;DHT22;41970;48.774;9.280;2022-07-18T14:05:39;32.90;31.20
56103;DHT22;41970;48.774;9.280;2022-07-18T14:08:05;33.00;31.40
56103;DHT22;41970;48.774;9.280;2022-07-18T14:10:32;33.20;31.20
56103;DHT22;41970;48.774;9.280;2022-07-18T14:12:59;33.20;31.50
56103;DHT22;41970;48.774;9.280;2022-07-18T14:15:25;33.20;31.80
56103;DHT22;41970;48.774;9.280;2022-07-18T14:17:51;33.40;31.20
56103;DHT22;41970;48.774;9.280;2022-07-18T14:20:17;33.70;30.90
56103;DHT22;41970;48.774;9.280;2022-07-18T14:22:44;33.90;30.70
56103;DHT22;41970;48.774;9.280;2022-07-18T14:25:13;34.10;30.90
56103;DHT22;41970;48.774;9.280;2022-07-18T14:27:40;34.30;30.20
56103;DHT22;41970;48.774;9.280;2022-07-18T14:30:09;34.30;30.80
56103;DHT22;41970;48.774;9.280;2022-07-18T14:32:36;34.20;30.50
56103;DHT22;41970;48.774;9.280;2022-07-18T14:35:03;34.30;31.40
56103;DHT22;41970;48.774;9.280;2022-07-18T14:37:29;34.40;31.00
56103;DHT22;41970;48.774;9.280;2022-07-18T14:39:55;34.60;30.70
56103;DHT22;41970;48.774;9.280;2022-07-18T14:42:21;34.30;30.60
56103;DHT22;41970;48.774;9.280;2022-07-18T14:44:47;33.70;30.90
56103;DHT22;41970;48.774;9.280;2022-07-18T14:47:13;33.90;31.20
56103;DHT22;41970;48.774;9.280;2022-07-18T14:49:39;34.10;31.20
56103;DHT22;41970;48.774;9.280;2022-07-18T14:52:05;34.00;31.30
56103;DHT22;41970;48.774;9.280;2022-07-18T14:54:31;34.30;31.40
56103;DHT22;41970;48.774;9.280;2022-07-18T14:56:56;34.30;30.30
56103;DHT22;41970;48.774;9.280;2022-07-18T14:59:23;34.40;30.20
56103;DHT22;41970;48.774;9.280;2022-07-18T15:01:49;34.40;30.50
56103;DHT22;41970;48.774;9.280;2022-07-18T15:04:15;34.50;31.00
56103;DHT22;41970;48.774;9.280;2022-07-18T15:06:41;34.40;31.40
56103;DHT22;41970;48.774;9.280;2022-07-18T15:09:08;34.30;31.10
56103;DHT22;41970;48.774;9.280;2022-07-18T15:11:38;34.40;31.30
56103;DHT22;41970;48.774;9.280;2022-07-18T15:14:04;34.60;31.70
56103;DHT22;41970;48.774;9.280;2022-07-18T15:16:30;34.70;31.30
56103;DHT22;41970;48.774;9.280;2022-07-18T15:18:56;34.80;31.10
56103;DHT22;41970;48.774;9.280;2022-07-18T15:21:22;34.80;30.70
56103;DHT22;41970;48.774;9.280;2022-07-18T15:23:48;34.60;30.80
56103;DHT22;41970;48.774;9.280;2022-07-18T15:26:14;34.40;30.70
56103;DHT22;41970;48.774;9.280;2022-07-18T15:28:39;34.60;30.40
56103;DHT22;41970;48.774;9.280;2022-07-18T15:31:05;34.70;30.90
56103;DHT22;41970;48.774;9.280;2022-07-18T15:33:33;34.80;30.00
56103;DHT22;41970;48.774;9.280;2022-07-18T15:35:59;34.80;30.70
56103;DHT22;41970;48.774;9.280;2022-07-18T15:38:25;34.70;30.00
56103;DHT22;41970;48.774;9.280;2022-07-18T15:40:51;34.70;30.00
56103;DHT22;41970;48.774;9.280;2022-07-18T15:43:17;34.80;30.00
56103;DHT22;41970;48.774;9.280;2022-07-18T15:45:43;34.80;30.40
56103;DHT22;41970;48.774;9.280;2022-07-18T15:48:09;34.80;29.90
56103;DHT22;41970;48.774;9.280;2022-07-18T15:50:35;34.80;30.70
56103;DHT22;41970;48.774;9.280;2022-07-18T15:53:01;34.80;30.20
56103;DHT22;41970;48.774;9.280;2022-07-18T15:55:27;34.80;30.00
56103;DHT22;41970;48.774;9.280;2022-07-18T15:57:56;34.80;30.50
56103;DHT22;41970;48.774;9.280;2022-07-18T16:00:22;34.60;30.70
56103;DHT22;41970;48.774;9.280;2022-07-18T16:02:48;34.50;30.70
56103;DHT22;41970;48.774;9.280;2022-07-18T16:05:14;34.50;30.60
56103;DHT22;41970;48.774;9.280;2022-07-18T16:07:40;34.50;30.00
56103;DHT22;41970;48.774;9.280;2022-07-18T16:10:07;34.50;30.50
56103;DHT22;41970;48.774;9.280;2022-07-18T16:12:33;34.50;30.60
56103;DHT22;41970;48.774;9.280;2022-07-18T16:14:59;34.50;30.80
56103;DHT22;41970;48.774;9.280;2022-07-18T16:17:25;34.50;31.00
56103;DHT22;41970;48.774;9.280;2022-07-18T16:19:51;34.50;30.00
56103;DHT22;41970;48.774;9.280;2022-07-18T16:22:17;34.50;30.40
56103;DHT22;41970;48.774;9.280;2022-07-18T16:24:43;34.50;30.50
56103;DHT22;41970;48.774;9.280;2022-07-18T16:27:10;34.30;30.40
56103;DHT22;41970;48.774;9.280;2022-07-18T16:29:36;34.10;31.20
56103;DHT22;41970;48.774;9.280;2022-07-18T16:32:03;34.10;30.50